sensor_id;sensor_type;location;lat;lon;timestamp;temperature;humidity
12111;DHT22;6119;52.372;8.990;2023-06-22T00:02:26;22.10;99.90
12111;DHT22;6119;52.372;8.990;2023-06-22T00:05:12;22.10;99.90
12111;DHT22;6119;52.372;8.990;2023-06-22T00:08:03;22.10;99.90
12111;DHT22;6119;52.372;8.990;2023-06-22T00:10:51;22.00;99.90
12111;DHT22;6119;52.372;8.990;2023-06-22T00:13:37;21.90;99.90
12111;DHT22;6119;52.372;8.990;2023-06-22T00:16:24;22.00;99.90
12111;DHT22;6119;52.372;8.990;2023-06-22T00:19:10;22.00;99.90
12111;DHT22;6119;52.372;8.990;2023-06-22T00:21:58;22.00;99.90
12111;DHT22;6119;52.372;8.990;2023-06-22T00:24:45;21.90;99.90
12111;DHT22;6119;52.372;8.990;2023-06-22T00:27:33;21.90;99.90
12111;DHT22;6119;52.372;8.990;2023-06-22T00:30:20;21.80;99.90
12111;DHT22;6119;52.372;8.990;2023-06-22T00:33:06;21.80;99.90
12111;DHT22;6119;52.372;8.990;2023-06-22T00:35:53;21.80;99.90
12111;DHT22;6119;52.372;8.990;2023-06-22T00:38:40;21.80;99.90
12111;DHT22;6119;52.372;8.990;2023-06-22T00:41:27;21.60;99.90
12111;DHT22;6119;52.372;8.990;2023-06-22T00:44:15;21.60;99.90
12111;DHT22;6119;52.372;8.990;2023-06-22T00:47:02;21.60;99.90
12111;DHT22;6119;52.372;8.990;2023-06-22T00:49:49;21.60;99.90
12111;DHT22;6119;52.372;8.990;2023-06-22T00:52:38;21.60;99.90
12111;DHT22;6119;52.372;8.990;2023-06-22T00:55:29;21.60;99.90
12111;DHT22;6119;52.372;8.990;2023-06-22T00:58:15;21.50;99.90
12111;DHT22;6119;52.372;8.990;2023-06-22T01:01:03;21.50;99.90
12111;DHT22;6119;52.372;8.990;2023-06-22T01:03:50;21.40;99.90
12111;DHT22;6119;52.372;8.990;2023-06-22T01:06:43;21.40;99.90
12111;DHT22;6119;52.372;8.990;2023-06-22T01:09:35;21.40;99.90
12111;DHT22;6119;52.372;8.990;2023-06-22T01:12:27;21.40;99.90
12111;DHT22;6119;52.372;8.990;2023-06-22T01:15:21;21.30;99.90
12111;DHT22;6119;52.372;8.990;2023-06-22T01:18:11;21.30;99.90
12111;DHT22;6119;52.372;8.990;2023-06-22T01:21:01;21.20;99.90
12111;DHT22;6119;52.372;8.990;2023-06-22T01:24:01;21.00;99.90
12111;DHT22;6119;52.372;8.990;2023-06-22T01:26:57;21.10;99.90
12111;DHT22;6119;52.372;8.990;2023-06-22T01:29:48;21.10;99.90
12111;DHT22;6119;52.372;8.990;2023-06-22T01:32:36;21.10;99.90
12111;DHT22;6119;52.372;8.990;2023-06-22T01:35:24;21.10;99.90
12111;DHT22;6119;52.372;8.990;2023-06-22T01:38:12;21.20;99.90
12111;DHT22;6119;52.372;8.990;2023-06-22T01:40:59;21.10;99.90
12111;DHT22;6119;52.372;8.990;2023-06-22T01:43:48;21.00;99.90
12111;DHT22;6119;52.372;8.990;2023-06-22T01:46:37;21.00;99.90
12111;DHT22;6119;52.372;8.990;2023-06-22T01:49:24;21.00;99.90
12111;DHT22;6119;52.372;8.990;2023-06-22T01:52:11;21.00;99.90
12111;DHT22;6119;52.372;8.990;2023-06-22T01:54:58;21.00;99.90
12111;DHT22;6119;52.372;8.990;2023-06-22T01:57:45;20.90;99.90
12111;DHT22;6119;52.372;8.990;2023-06-22T02:00:33;20.80;99.90
12111;DHT22;6119;52.372;8.990;2023-06-22T02:03:27;20.80;99.90
12111;DHT22;6119;52.372;8.990;2023-06-22T02:06:19;20.90;99.90
12111;DHT22;6119;52.372;8.990;2023-06-22T02:09:12;20.80;99.90
12111;DHT22;6119;52.372;8.990;2023-06-22T02:12:00;20.90;99.90
12111;DHT22;6119;52.372;8.990;2023-06-22T02:14:48;20.80;99.90
12111;DHT22;6119;52.372;8.990;2023-06-22T02:17:36;20.70;99.90
12111;DHT22;6119;52.372;8.990;2023-06-22T02:20:25;20.60;99.90
12111;DHT22;6119;52.372;8.990;2023-06-22T02:23:12;20.70;99.90
12111;DHT22;6119;52.372;8.990;2023-06-22T02:25:58;20.60;99.90
12111;DHT22;6119;52.372;8.990;2023-06-22T02:28:45;20.70;99.90
12111;DHT22;6119;52.372;8.990;2023-06-22T02:31:32;20.60;99.90
12111;DHT22;6119;52.372;8.990;2023-06-22T02:34:18;20.50;99.90
12111;DHT22;6119;52.372;8.990;2023-06-22T02:37:06;20.60;99.90
12111;DHT22;6119;52.372;8.990;2023-06-22T02:39:53;20.60;99.90
12111;DHT22;6119;52.372;8.990;2023-06-22T02:42:40;20.60;99.90
12111;DHT22;6119;52.372;8.990;2023-06-22T02:45:26;20.60;99.90
12111;DHT22;6119;52.372;8.990;2023-06-22T02:48:13;20.50;99.90
12111;DHT22;6119;52.372;8.990;2023-06-22T02:51:00;20.50;99.90
12111;DHT22;6119;52.372;8.990;2023-06-22T02:53:48;20.50;99.90
12111;DHT22;6119;52.372;8.990;2023-06-22T02:56:37;20.50;99.90
12111;DHT22;6119;52.372;8.990;2023-06-22T02:59:26;20.40;99.90
12111;DHT22;6119;52.372;8.990;2023-06-22T03:02:12;20.50;99.90
12111;DHT22;6119;52.372;8.990;2023-06-22T03:04:59;20.50;99.90
12111;DHT22;6119;52.372;8.990;2023-06-22T03:07:47;20.40;99.90
12111;DHT22;6119;52.372;8.990;2023-06-22T03:10:35;20.40;99.90
12111;DHT22;6119;52.372;8.990;2023-06-22T03:13:22;20.40;99.90
12111;DHT22;6119;52.372;8.990;2023-06-22T03:16:08;20.40;99.90
12111;DHT22;6119;52.372;8.990;2023-06-22T03:18:55;20.40;99.90
12111;DHT22;6119;52.372;8.990;2023-06-22T03:21:41;20.30;99.90
12111;DHT22;6119;52.372;8.990;2023-06-22T03:24:28;20.40;99.90
12111;DHT22;6119;52.372;8.990;2023-06-22T03:27:16;20.30;99.90
12111;DHT22;6119;52.372;8.990;2023-06-22T03:30:03;20.30;99.90
12111;DHT22;6119;52.372;8.990;2023-06-22T03:32:50;20.30;99.90
12111;DHT22;6119;52.372;8.990;2023-06-22T03:35:37;20.20;99.90
12111;DHT22;6119;52.372;8.990;2023-06-22T03:38:24;20.30;99.90
12111;DHT22;6119;52.372;8.990;2023-06-22T03:41:11;20.30;99.90
12111;DHT22;6119;52.372;8.990;2023-06-22T03:43:59;20.30;99.90
12111;DHT22;6119;52.372;8.990;2023-06-22T03:46:45;20.20;99.90
12111;DHT22;6119;52.372;8.990;2023-06-22T03:49:32;20.30;99.90
12111;DHT22;6119;52.372;8.990;2023-06-22T03:52:18;20.20;99.90
12111;DHT22;6119;52.372;8.990;2023-06-22T03:55:06;20.30;99.90
12111;DHT22;6119;52.372;8.990;2023-06-22T03:57:53;20.20;99.90
12111;DHT22;6119;52.372;8.990;2023-06-22T04:00:43;20.30;99.90
12111;DHT22;6119;52.372;8.990;2023-06-22T04:03:30;20.30;99.90
12111;DHT22;6119;52.372;8.990;2023-06-22T04:06:17;20.20;99.90
12111;DHT22;6119;52.372;8.990;2023-06-22T04:09:05;20.20;99.90
12111;DHT22;6119;52.372;8.990;2023-06-22T04:11:52;20.30;99.90
12111;DHT22;6119;52.372;8.990;2023-06-22T04:14:38;20.30;99.90
12111;DHT22;6119;52.372;8.990;2023-06-22T04:17:26;20.20;99.90
12111;DHT22;6119;52.372;8.990;2023-06-22T04:20:12;20.20;99.90
12111;DHT22;6119;52.372;8.990;2023-06-22T04:22:59;20.20;99.90
12111;DHT22;6119;52.372;8.990;2023-06-22T04:25:46;20.20;99.90
12111;DHT22;6119;52.372;8.990;2023-06-22T04:28:32;20.20;99.90
12111;DHT22;6119;52.372;8.990;2023-06-22T04:31:20;20.20;99.90
12111;DHT22;6119;52.372;8.990;2023-06-22T04:34:08;20.20;99.90
12111;DHT22;6119;52.372;8.990;2023-06-22T04:36:55;20.20;99.90
12111;DHT22;6119;52.372;8.990;2023-06-22T04:39:42;20.10;99.90
12111;DHT22;6119;52.372;8.990;2023-06-22T04:42:29;20.10;99.90
12111;DHT22;6119;52.372;8.990;2023-06-22T04:45:17;20.10;99.90
12111;DHT22;6119;52.372;8.990;2023-06-22T04:48:04;20.10;99.90
12111;DHT22;6119;52.372;8.990;2023-06-22T04:50:53;20.10;99.90
12111;DHT22;6119;52.372;8.990;2023-06-22T04:53:40;20.20;99.90
12111;DHT22;6119;52.372;8.990;2023-06-22T04:56:26;20.20;99.90
12111;DHT22;6119;52.372;8.990;2023-06-22T04:59:15;20.30;99.90
12111;DHT22;6119;52.372;8.990;2023-06-22T05:02:04;20.30;99.90
12111;DHT22;6119;52.372;8.990;2023-06-22T05:04:51;20.30;99.90
12111;DHT22;6119;52.372;8.990;2023-06-22T05:07:44;20.40;99.90
12111;DHT22;6119;52.372;8.990;2023-06-22T05:10:33;20.40;99.90
12111;DHT22;6119;52.372;8.990;2023-06-22T05:13:19;20.40;99.90
12111;DHT22;6119;52.372;8.990;2023-06-22T05:16:06;20.50;99.90
12111;DHT22;6119;52.372;8.990;2023-06-22T05:18:53;20.50;99.90
12111;DHT22;6119;52.372;8.990;2023-06-22T05:21:40;20.50;99.90
12111;DHT22;6119;52.372;8.990;2023-06-22T05:24:28;20.40;99.90
12111;DHT22;6119;52.372;8.990;2023-06-22T05:27:15;20.60;99.90
12111;DHT22;6119;52.372;8.990;2023-06-22T05:30:02;20.70;99.90
12111;DHT22;6119;52.372;8.990;2023-06-22T05:32:48;20.80;99.90
12111;DHT22;6119;52.372;8.990;2023-06-22T05:35:35;20.90;99.90
12111;DHT22;6119;52.372;8.990;2023-06-22T05:38:22;20.90;99.90
12111;DHT22;6119;52.372;8.990;2023-06-22T05:41:10;21.00;99.90
12111;DHT22;6119;52.372;8.990;2023-06-22T05:43:56;21.10;99.90
12111;DHT22;6119;52.372;8.990;2023-06-22T05:46:44;21.10;99.90
12111;DHT22;6119;52.372;8.990;2023-06-22T05:49:31;20.90;99.90
12111;DHT22;6119;52.372;8.990;2023-06-22T05:52:18;21.00;99.90
12111;DHT22;6119;52.372;8.990;2023-06-22T05:55:05;21.10;99.90
12111;DHT22;6119;52.372;8.990;2023-06-22T05:57:53;21.10;99.90
12111;DHT22;6119;52.372;8.990;2023-06-22T06:00:40;21.20;99.90
12111;DHT22;6119;52.372;8.990;2023-06-22T06:03:27;21.20;99.90
12111;DHT22;6119;52.372;8.990;2023-06-22T06:06:14;21.30;99.90
12111;DHT22;6119;52.372;8.990;2023-06-22T06:09:00;21.30;99.90
12111;DHT22;6119;52.372;8.990;2023-06-22T06:11:47;21.30;99.90
12111;DHT22;6119;52.372;8.990;2023-06-22T06:14:35;21.40;99.90
12111;DHT22;6119;52.372;8.990;2023-06-22T06:17:21;21.50;99.90
12111;DHT22;6119;52.372;8.990;2023-06-22T06:20:09;21.60;99.90
12111;DHT22;6119;52.372;8.990;2023-06-22T06:22:57;21.60;99.90
12111;DHT22;6119;52.372;8.990;2023-06-22T06:25:43;21.70;99.90
12111;DHT22;6119;52.372;8.990;2023-06-22T06:28:30;21.70;99.90
12111;DHT22;6119;52.372;8.990;2023-06-22T06:31:18;21.80;99.90
12111;DHT22;6119;52.372;8.990;2023-06-22T06:34:05;21.80;99.90
12111;DHT22;6119;52.372;8.990;2023-06-22T06:36:52;21.90;99.90
12111;DHT22;6119;52.372;8.990;2023-06-22T06:39:38;22.00;99.90
12111;DHT22;6119;52.372;8.990;2023-06-22T06:42:28;22.10;99.90
12111;DHT22;6119;52.372;8.990;2023-06-22T06:45:16;22.20;99.90
12111;DHT22;6119;52.372;8.990;2023-06-22T06:48:04;22.20;99.90
12111;DHT22;6119;52.372;8.990;2023-06-22T06:50:52;22.40;99.90
12111;DHT22;6119;52.372;8.990;2023-06-22T06:53:38;22.50;99.90
12111;DHT22;6119;52.372;8.990;2023-06-22T06:56:25;22.70;99.90
12111;DHT22;6119;52.372;8.990;2023-06-22T06:59:12;22.70;99.90
12111;DHT22;6119;52.372;8.990;2023-06-22T07:01:58;22.80;99.90
12111;DHT22;6119;52.372;8.990;2023-06-22T07:04:46;22.80;99.90
12111;DHT22;6119;52.372;8.990;2023-06-22T07:07:34;22.90;99.90
12111;DHT22;6119;52.372;8.990;2023-06-22T07:10:23;23.00;99.90
12111;DHT22;6119;52.372;8.990;2023-06-22T07:13:10;23.10;99.90
12111;DHT22;6119;52.372;8.990;2023-06-22T07:15:56;23.20;99.90
12111;DHT22;6119;52.372;8.990;2023-06-22T07:18:43;23.20;99.90
12111;DHT22;6119;52.372;8.990;2023-06-22T07:21:31;23.20;99.90
12111;DHT22;6119;52.372;8.990;2023-06-22T07:24:18;23.20;99.90
12111;DHT22;6119;52.372;8.990;2023-06-22T07:27:06;23.30;99.90
12111;DHT22;6119;52.372;8.990;2023-06-22T07:29:52;23.50;99.90
12111;DHT22;6119;52.372;8.990;2023-06-22T07:32:40;23.60;99.90
12111;DHT22;6119;52.372;8.990;2023-06-22T07:35:27;23.70;99.90
12111;DHT22;6119;52.372;8.990;2023-06-22T07:38:15;23.70;99.90
12111;DHT22;6119;52.372;8.990;2023-06-22T07:41:02;23.70;99.90
12111;DHT22;6119;52.372;8.990;2023-06-22T07:43:51;23.80;99.90
12111;DHT22;6119;52.372;8.990;2023-06-22T07:46:37;23.80;99.90
12111;DHT22;6119;52.372;8.990;2023-06-22T07:49:24;23.70;99.90
12111;DHT22;6119;52.372;8.990;2023-06-22T07:52:10;23.80;99.90
12111;DHT22;6119;52.372;8.990;2023-06-22T07:54:58;23.90;99.90
12111;DHT22;6119;52.372;8.990;2023-06-22T07:57:47;24.00;99.90
12111;DHT22;6119;52.372;8.990;2023-06-22T08:00:33;24.10;99.90
12111;DHT22;6119;52.372;8.990;2023-06-22T08:03:20;24.30;99.90
12111;DHT22;6119;52.372;8.990;2023-06-22T08:06:07;24.40;99.90
12111;DHT22;6119;52.372;8.990;2023-06-22T08:08:55;24.50;99.90
12111;DHT22;6119;52.372;8.990;2023-06-22T08:11:43;24.50;99.90
12111;DHT22;6119;52.372;8.990;2023-06-22T08:14:30;24.60;99.90
12111;DHT22;6119;52.372;8.990;2023-06-22T08:17:17;24.60;99.90
12111;DHT22;6119;52.372;8.990;2023-06-22T08:20:04;24.50;99.90
12111;DHT22;6119;52.372;8.990;2023-06-22T08:22:55;24.60;99.90
12111;DHT22;6119;52.372;8.990;2023-06-22T08:25:43;24.60;99.90
12111;DHT22;6119;52.372;8.990;2023-06-22T08:28:31;24.60;99.90
12111;DHT22;6119;52.372;8.990;2023-06-22T08:31:17;24.60;99.90
12111;DHT22;6119;52.372;8.990;2023-06-22T08:34:04;24.60;99.90
12111;DHT22;6119;52.372;8.990;2023-06-22T08:36:51;24.60;99.90
12111;DHT22;6119;52.372;8.990;2023-06-22T08:39:38;24.60;99.90
12111;DHT22;6119;52.372;8.990;2023-06-22T08:42:25;24.60;99.90
12111;DHT22;6119;52.372;8.990;2023-06-22T08:45:13;24.70;99.90
12111;DHT22;6119;52.372;8.990;2023-06-22T08:48:00;24.70;99.90
12111;DHT22;6119;52.372;8.990;2023-06-22T08:50:47;24.80;99.90
12111;DHT22;6119;52.372;8.990;2023-06-22T08:53:33;25.00;99.90
12111;DHT22;6119;52.372;8.990;2023-06-22T08:56:21;25.00;99.90
12111;DHT22;6119;52.372;8.990;2023-06-22T08:59:08;24.90;99.90
12111;DHT22;6119;52.372;8.990;2023-06-22T09:01:56;25.00;99.90
12111;DHT22;6119;52.372;8.990;2023-06-22T09:04:43;25.00;99.90
12111;DHT22;6119;52.372;8.990;2023-06-22T09:07:30;25.10;99.90
12111;DHT22;6119;52.372;8.990;2023-06-22T09:10:16;25.10;99.90
12111;DHT22;6119;52.372;8.990;2023-06-22T09:13:04;25.10;99.90
12111;DHT22;6119;52.372;8.990;2023-06-22T09:15:50;25.10;99.90
12111;DHT22;6119;52.372;8.990;2023-06-22T09:18:38;25.10;99.90
12111;DHT22;6119;52.372;8.990;2023-06-22T09:21:25;25.10;99.90
12111;DHT22;6119;52.372;8.990;2023-06-22T09:24:11;25.20;99.90
12111;DHT22;6119;52.372;8.990;2023-06-22T09:26:58;25.30;99.90
12111;DHT22;6119;52.372;8.990;2023-06-22T09:29:45;25.40;99.90
12111;DHT22;6119;52.372;8.990;2023-06-22T09:32:32;25.50;99.90
12111;DHT22;6119;52.372;8.990;2023-06-22T09:35:20;25.60;99.90
12111;DHT22;6119;52.372;8.990;2023-06-22T09:38:07;25.60;99.90
12111;DHT22;6119;52.372;8.990;2023-06-22T09:40:53;25.70;99.90
12111;DHT22;6119;52.372;8.990;2023-06-22T09:43:40;25.80;99.90
12111;DHT22;6119;52.372;8.990;2023-06-22T09:46:26;26.00;99.90
12111;DHT22;6119;52.372;8.990;2023-06-22T09:49:14;26.00;99.90
12111;DHT22;6119;52.372;8.990;2023-06-22T09:52:02;26.10;99.90
12111;DHT22;6119;52.372;8.990;2023-06-22T09:54:48;26.10;99.90
12111;DHT22;6119;52.372;8.990;2023-06-22T09:57:35;26.20;99.90
12111;DHT22;6119;52.372;8.990;2023-06-22T10:00:21;26.20;99.90
12111;DHT22;6119;52.372;8.990;2023-06-22T10:03:08;26.20;99.90
12111;DHT22;6119;52.372;8.990;2023-06-22T10:05:55;26.20;99.90
12111;DHT22;6119;52.372;8.990;2023-06-22T10:08:43;26.30;99.90
12111;DHT22;6119;52.372;8.990;2023-06-22T10:11:29;26.40;99.90
12111;DHT22;6119;52.372;8.990;2023-06-22T10:14:16;26.60;99.90
12111;DHT22;6119;52.372;8.990;2023-06-22T10:17:03;26.80;99.90
12111;DHT22;6119;52.372;8.990;2023-06-22T10:19:52;27.00;99.90
12111;DHT22;6119;52.372;8.990;2023-06-22T10:22:40;26.90;99.90
12111;DHT22;6119;52.372;8.990;2023-06-22T10:25:28;27.00;99.90
12111;DHT22;6119;52.372;8.990;2023-06-22T10:28:16;27.30;99.90
12111;DHT22;6119;52.372;8.990;2023-06-22T10:31:02;27.30;99.90
12111;DHT22;6119;52.372;8.990;2023-06-22T10:33:49;27.40;99.90
12111;DHT22;6119;52.372;8.990;2023-06-22T10:36:36;27.40;99.90
12111;DHT22;6119;52.372;8.990;2023-06-22T10:39:23;27.30;99.90
12111;DHT22;6119;52.372;8.990;2023-06-22T10:42:12;27.30;99.90
12111;DHT22;6119;52.372;8.990;2023-06-22T10:44:59;27.00;99.90
12111;DHT22;6119;52.372;8.990;2023-06-22T10:47:46;27.50;99.90
12111;DHT22;6119;52.372;8.990;2023-06-22T10:50:33;27.50;99.90
12111;DHT22;6119;52.372;8.990;2023-06-22T10:53:20;27.40;99.90
12111;DHT22;6119;52.372;8.990;2023-06-22T10:56:07;27.30;99.90
12111;DHT22;6119;52.372;8.990;2023-06-22T10:58:55;27.30;99.90
12111;DHT22;6119;52.372;8.990;2023-06-22T11:01:41;27.40;99.90
12111;DHT22;6119;52.372;8.990;2023-06-22T11:04:28;27.40;99.90
12111;DHT22;6119;52.372;8.990;2023-06-22T11:07:16;27.50;99.90
12111;DHT22;6119;52.372;8.990;2023-06-22T11:10:05;27.50;99.90
12111;DHT22;6119;52.372;8.990;2023-06-22T11:12:51;27.60;99.90
12111;DHT22;6119;52.372;8.990;2023-06-22T11:15:40;27.80;99.90
12111;DHT22;6119;52.372;8.990;2023-06-22T11:18:26;27.80;99.90
12111;DHT22;6119;52.372;8.990;2023-06-22T11:21:13;27.90;99.90
12111;DHT22;6119;52.372;8.990;2023-06-22T11:23:59;27.90;99.90
12111;DHT22;6119;52.372;8.990;2023-06-22T11:26:46;27.90;99.90
12111;DHT22;6119;52.372;8.990;2023-06-22T11:29:33;28.00;99.90
12111;DHT22;6119;52.372;8.990;2023-06-22T11:32:24;28.10;99.90
12111;DHT22;6119;52.372;8.990;2023-06-22T11:35:11;28.10;99.90
12111;DHT22;6119;52.372;8.990;2023-06-22T11:37:57;28.10;99.90
12111;DHT22;6119;52.372;8.990;2023-06-22T11:40:44;28.60;99.90
12111;DHT22;6119;52.372;8.990;2023-06-22T11:43:30;28.40;99.90
12111;DHT22;6119;52.372;8.990;2023-06-22T11:46:17;28.60;99.90
12111;DHT22;6119;52.372;8.990;2023-06-22T11:49:05;29.00;99.90
12111;DHT22;6119;52.372;8.990;2023-06-22T11:51:51;29.30;99.90
12111;DHT22;6119;52.372;8.990;2023-06-22T11:54:38;29.60;99.90
12111;DHT22;6119;52.372;8.990;2023-06-22T11:57:25;29.70;99.90
12111;DHT22;6119;52.372;8.990;2023-06-22T12:00:12;29.60;99.90
12111;DHT22;6119;52.372;8.990;2023-06-22T12:03:03;29.60;99.90
12111;DHT22;6119;52.372;8.990;2023-06-22T12:05:51;29.70;99.90
12111;DHT22;6119;52.372;8.990;2023-06-22T12:08:38;29.90;99.90
12111;DHT22;6119;52.372;8.990;2023-06-22T12:11:25;29.40;99.90
12111;DHT22;6119;52.372;8.990;2023-06-22T12:14:12;29.50;99.90
12111;DHT22;6119;52.372;8.990;2023-06-22T12:16:59;29.20;99.90
12111;DHT22;6119;52.372;8.990;2023-06-22T12:19:45;29.10;99.90
12111;DHT22;6119;52.372;8.990;2023-06-22T12:22:33;29.20;99.90
12111;DHT22;6119;52.372;8.990;2023-06-22T12:25:19;29.30;99.90
12111;DHT22;6119;52.372;8.990;2023-06-22T12:28:06;29.40;99.90
12111;DHT22;6119;52.372;8.990;2023-06-22T12:30:52;29.30;99.90
12111;DHT22;6119;52.372;8.990;2023-06-22T12:33:39;29.40;99.90
12111;DHT22;6119;52.372;8.990;2023-06-22T12:36:26;29.50;99.90
12111;DHT22;6119;52.372;8.990;2023-06-22T12:39:14;29.50;99.90
12111;DHT22;6119;52.372;8.990;2023-06-22T12:42:01;29.60;99.90
12111;DHT22;6119;52.372;8.990;2023-06-22T12:44:47;29.50;99.90
12111;DHT22;6119;52.372;8.990;2023-06-22T12:47:34;29.20;99.90
12111;DHT22;6119;52.372;8.990;2023-06-22T12:50:21;29.10;99.90
12111;DHT22;6119;52.372;8.990;2023-06-22T12:53:08;29.10;99.90
12111;DHT22;6119;52.372;8.990;2023-06-22T12:55:55;29.10;99.90
12111;DHT22;6119;52.372;8.990;2023-06-22T12:58:42;29.20;99.90
12111;DHT22;6119;52.372;8.990;2023-06-22T13:01:28;29.10;99.90
12111;DHT22;6119;52.372;8.990;2023-06-22T13:04:16;29.10;99.90
12111;DHT22;6119;52.372;8.990;2023-06-22T13:07:04;29.10;99.90
12111;DHT22;6119;52.372;8.990;2023-06-22T13:10:05;29.00;99.90
12111;DHT22;6119;52.372;8.990;2023-06-22T13:12:54;28.80;99.90
12111;DHT22;6119;52.372;8.990;2023-06-22T13:15:45;28.70;99.90
12111;DHT22;6119;52.372;8.990;2023-06-22T13:18:32;28.60;99.90
12111;DHT22;6119;52.372;8.990;2023-06-22T13:21:19;28.50;99.90
12111;DHT22;6119;52.372;8.990;2023-06-22T13:24:06;28.40;99.90
12111;DHT22;6119;52.372;8.990;2023-06-22T13:26:53;28.30;99.90
12111;DHT22;6119;52.372;8.990;2023-06-22T13:29:41;28.20;99.90
12111;DHT22;6119;52.372;8.990;2023-06-22T13:32:28;28.10;99.90
12111;DHT22;6119;52.372;8.990;2023-06-22T13:35:15;27.90;99.90
12111;DHT22;6119;52.372;8.990;2023-06-22T13:38:02;27.70;99.90
12111;DHT22;6119;52.372;8.990;2023-06-22T13:40:48;27.70;99.90
12111;DHT22;6119;52.372;8.990;2023-06-22T13:43:35;27.50;99.90
12111;DHT22;6119;52.372;8.990;2023-06-22T13:46:23;27.40;99.90
12111;DHT22;6119;52.372;8.990;2023-06-22T13:49:10;27.20;99.90
12111;DHT22;6119;52.372;8.990;2023-06-22T13:51:56;27.20;99.90
12111;DHT22;6119;52.372;8.990;2023-06-22T13:54:43;27.00;99.90
12111;DHT22;6119;52.372;8.990;2023-06-22T13:57:29;26.90;99.90
12111;DHT22;6119;52.372;8.990;2023-06-22T14:00:16;26.90;99.90
12111;DHT22;6119;52.372;8.990;2023-06-22T14:03:04;26.60;99.90
12111;DHT22;6119;52.372;8.990;2023-06-22T14:05:51;26.50;99.90
12111;DHT22;6119;52.372;8.990;2023-06-22T14:08:41;26.30;99.90
12111;DHT22;6119;52.372;8.990;2023-06-22T14:11:28;26.10;99.90
12111;DHT22;6119;52.372;8.990;2023-06-22T14:14:14;26.00;99.90
12111;DHT22;6119;52.372;8.990;2023-06-22T14:17:02;25.80;99.90
12111;DHT22;6119;52.372;8.990;2023-06-22T14:19:51;25.70;99.90
12111;DHT22;6119;52.372;8.990;2023-06-22T14:22:39;25.40;99.90
12111;DHT22;6119;52.372;8.990;2023-06-22T14:25:25;25.30;99.90
12111;DHT22;6119;52.372;8.990;2023-06-22T14:28:12;25.30;99.90
12111;DHT22;6119;52.372;8.990;2023-06-22T14:30:59;25.30;99.90
12111;DHT22;6119;52.372;8.990;2023-06-22T14:33:47;25.20;99.90
12111;DHT22;6119;52.372;8.990;2023-06-22T14:36:35;25.20;99.90
12111;DHT22;6119;52.372;8.990;2023-06-22T14:39:22;25.00;99.90
12111;DHT22;6119;52.372;8.990;2023-06-22T14:42:09;24.70;99.90
12111;DHT22;6119;52.372;8.990;2023-06-22T14:44:55;24.80;99.90
12111;DHT22;6119;52.372;8.990;2023-06-22T14:47:42;24.80;99.90
12111;DHT22;6119;52.372;8.990;2023-06-22T14:50:29;24.80;99.90
12111;DHT22;6119;52.372;8.990;2023-06-22T14:53:18;24.90;99.90
12111;DHT22;6119;52.372;8.990;2023-06-22T14:56:05;24.90;99.90
12111;DHT22;6119;52.372;8.990;2023-06-22T14:58:52;24.80;99.90
12111;DHT22;6119;52.372;8.990;2023-06-22T15:01:39;24.80;99.90
12111;DHT22;6119;52.372;8.990;2023-06-22T15:04:26;24.60;99.90
12111;DHT22;6119;52.372;8.990;2023-06-22T15:07:17;24.50;99.90
12111;DHT22;6119;52.372;8.990;2023-06-22T15:10:07;24.40;99.90
12111;DHT22;6119;52.372;8.990;2023-06-22T15:12:53;24.30;99.90
12111;DHT22;6119;52.372;8.990;2023-06-22T15:15:40;24.20;99.90
12111;DHT22;6119;52.372;8.990;2023-06-22T15:18:26;24.20;99.90
12111;DHT22;6119;52.372;8.990;2023-06-22T15:21:13;24.20;99.90
12111;DHT22;6119;52.372;8.990;2023-06-22T15:23:59;24.00;99.90
12111;DHT22;6119;52.372;8.990;2023-06-22T15:26:47;24.00;99.90
12111;DHT22;6119;52.372;8.990;2023-06-22T15:29:34;23.80;99.90
12111;DHT22;6119;52.372;8.990;2023-06-22T15:32:21;23.90;99.90
12111;DHT22;6119;52.372;8.990;2023-06-22T15:35:08;23.70;99.90
12111;DHT22;6119;52.372;8.990;2023-06-22T15:37:55;23.60;99.90
12111;DHT22;6119;52.372;8.990;2023-06-22T15:40:41;23.50;99.90
12111;DHT22;6119;52.372;8.990;2023-06-22T15:43:29;23.30;99.90
12111;DHT22;6119;52.372;8.990;2023-06-22T15:46:16;23.20;99.90
12111;DHT22;6119;52.372;8.990;2023-06-22T15:49:03;23.50;99.90
12111;DHT22;6119;52.372;8.990;2023-06-22T15:51:49;23.50;99.90
12111;DHT22;6119;52.372;8.990;2023-06-22T15:54:36;23.50;99.90
12111;DHT22;6119;52.372;8.990;2023-06-22T15:57:22;23.60;99.90
12111;DHT22;6119;52.372;8.990;2023-06-22T16:00:14;23.70;99.90
12111;DHT22;6119;52.372;8.990;2023-06-22T16:03:01;23.80;99.90
12111;DHT22;6119;52.372;8.990;2023-06-22T16:05:48;23.80;99.90
12111;DHT22;6119;52.372;8.990;2023-06-22T16:08:35;23.90;99.90
12111;DHT22;6119;52.372;8.990;2023-06-22T16:11:21;24.00;99.90
12111;DHT22;6119;52.372;8.990;2023-06-22T16:14:08;24.10;99.90
12111;DHT22;6119;52.372;8.990;2023-06-22T16:16:56;24.20;99.90
12111;DHT22;6119;52.372;8.990;2023-06-22T16:19:43;24.50;99.90
12111;DHT22;6119;52.372;8.990;2023-06-22T16:22:30;24.70;99.90
12111;DHT22;6119;52.372;8.990;2023-06-22T16:25:16;24.70;99.90
12111;DHT22;6119;52.372;8.990;2023-06-22T16:28:02;24.70;99.90
12111;DHT22;6119;52.372;8.990;2023-06-22T16:30:49;24.60;99.90
12111;DHT22;6119;52.372;8.990;2023-06-22T16:33:39;24.70;99.90
12111;DHT22;6119;52.372;8.990;2023-06-22T16:36:32;24.70;99.90
12111;DHT22;6119;52.372;8.990;2023-06-22T16:39:18;24.60;99.90
12111;DHT22;6119;52.372;8.990;2023-06-22T16:42:06;24.40;99.90
12111;DHT22;6119;52.372;8.990;2023-06-22T16:44:52;24.40;99.90
12111;DHT22;6119;52.372;8.990;2023-06-22T16:47:39;24.50;99.90
12111;DHT22;6119;52.372;8.990;2023-06-22T16:50:27;24.40;99.90
12111;DHT22;6119;52.372;8.990;2023-06-22T16:53:14;24.30;99.90
12111;DHT22;6119;52.372;8.990;2023-06-22T16:56:03;24.40;99.90
12111;DHT22;6119;52.372;8.990;2023-06-22T16:58:50;24.30;99.90
12111;DHT22;6119;52.372;8.990;2023-06-22T17:01:52;24.20;99.90
12111;DHT22;6119;52.372;8.990;2023-06-22T17:04:40;24.20;99.90
12111;DHT22;6119;52.372;8.990;2023-06-22T17:07:30;24.00;99.90
12111;DHT22;6119;52.372;8.990;2023-06-22T17:10:20;24.00;99.90
12111;DHT22;6119;52.372;8.990;2023-06-22T17:13:07;23.80;99.90
12111;DHT22;6119;52.372;8.990;2023-06-22T17:15:56;23.70;99.90
12111;DHT22;6119;52.372;8.990;2023-06-22T17:18:44;23.80;99.90
12111;DHT22;6119;52.372;8.990;2023-06-22T17:21:31;23.80;99.90
12111;DHT22;6119;52.372;8.990;2023-06-22T17:24:20;23.60;99.90
12111;DHT22;6119;52.372;8.990;2023-06-22T17:27:08;23.50;99.90
12111;DHT22;6119;52.372;8.990;2023-06-22T17:30:06;23.50;99.90
12111;DHT22;6119;52.372;8.990;2023-06-22T17:32:53;23.50;99.90
12111;DHT22;6119;52.372;8.990;2023-06-22T17:35:45;23.30;99.90
12111;DHT22;6119;52.372;8.990;2023-06-22T17:38:36;23.40;99.90
12111;DHT22;6119;52.372;8.990;2023-06-22T17:41:31;23.40;99.90
12111;DHT22;6119;52.372;8.990;2023-06-22T17:44:19;23.40;99.90
12111;DHT22;6119;52.372;8.990;2023-06-22T17:47:06;23.30;99.90
12111;DHT22;6119;52.372;8.990;2023-06-22T17:50:03;23.30;99.90
12111;DHT22;6119;52.372;8.990;2023-06-22T17:52:51;23.30;99.90
12111;DHT22;6119;52.372;8.990;2023-06-22T17:55:38;23.30;99.90